createdAt,value
2023-03-24T00:02:05.107Z,13.48
2023-03-24T00:04:33.592Z,10.95
2023-03-24T00:07:03.363Z,12.52
2023-03-24T00:09:32.395Z,13.52
2023-03-24T00:12:00.666Z,13.30
2023-03-24T00:14:30.660Z,15.27
2023-03-24T00:17:00.310Z,14.05
2023-03-24T00:19:28.763Z,12.18
2023-03-24T00:21:56.996Z,9.52
2023-03-24T00:24:25.398Z,14.85
2023-03-24T00:26:57.580Z,11.23
2023-03-24T00:29:26.460Z,11.25
2023-03-24T00:31:55.385Z,9.80
2023-03-24T00:34:25.590Z,10.77
2023-03-24T00:36:53.851Z,12.02
2023-03-24T00:39:22.442Z,12.68
2023-03-24T00:41:50.665Z,12.98
2023-03-24T00:44:19.085Z,17.35
2023-03-24T00:46:55.403Z,15.85
2023-03-24T00:49:42.122Z,18.15
2023-03-24T00:52:11.178Z,15.27
2023-03-24T00:54:39.940Z,16.23
2023-03-24T00:57:08.820Z,15.63
2023-03-24T00:59:42.416Z,14.43
2023-03-24T01:02:12.041Z,16.00
2023-03-24T01:04:47.275Z,14.20
2023-03-24T01:07:18.218Z,20.70
2023-03-24T01:09:57.367Z,15.68
2023-03-24T01:12:25.743Z,16.83
2023-03-24T01:14:54.049Z,15.13
2023-03-24T01:17:25.558Z,16.65
2023-03-24T01:19:55.638Z,17.63
2023-03-24T01:22:27.801Z,16.85
2023-03-24T01:24:56.300Z,16.90
2023-03-24T01:27:24.725Z,17.80
2023-03-24T01:29:52.939Z,15.80
2023-03-24T01:32:21.199Z,14.63
2023-03-24T01:34:49.455Z,17.30
2023-03-24T01:37:19.121Z,17.35
2023-03-24T01:39:47.645Z,17.25
2023-03-24T01:42:20.485Z,18.42
2023-03-24T01:44:50.430Z,16.63
2023-03-24T01:47:19.298Z,19.43
2023-03-24T01:49:53.393Z,16.37
2023-03-24T01:52:27.784Z,18.45
2023-03-24T01:54:59.425Z,20.45
2023-03-24T01:57:32.046Z,17.67
2023-03-24T02:00:08.506Z,15.00
2023-03-24T02:02:37.990Z,16.65
2023-03-24T02:05:10.488Z,22.73
2023-03-24T02:07:45.662Z,18.50
2023-03-24T02:10:16.802Z,18.13
2023-03-24T02:12:46.470Z,16.00
2023-03-24T02:15:16.947Z,17.73
2023-03-24T02:18:01.451Z,17.20
2023-03-24T02:21:19.626Z,18.13
2023-03-24T02:24:26.366Z,20.67
2023-03-24T02:27:03.481Z,14.03
2023-03-24T02:30:12.520Z,17.00
2023-03-24T02:33:16.609Z,17.43
2023-03-24T02:36:24.182Z,15.17
2023-03-24T02:39:28.647Z,17.03
2023-03-24T02:42:06.955Z,15.63
2023-03-24T02:44:43.085Z,17.03
2023-03-24T02:47:17.875Z,19.10
2023-03-24T02:49:53.260Z,18.07
2023-03-24T02:52:27.536Z,19.63
2023-03-24T02:55:03.224Z,16.70
2023-03-24T02:57:36.190Z,18.43
2023-03-24T03:00:12.648Z,17.90
2023-03-24T03:02:47.031Z,16.83
2023-03-24T03:05:20.992Z,17.60
2023-03-24T03:07:51.548Z,15.77
2023-03-24T03:10:25.300Z,16.97
2023-03-24T03:12:57.731Z,19.40
2023-03-24T03:15:29.164Z,17.40
2023-03-24T03:18:03.550Z,15.90
2023-03-24T03:20:38.986Z,16.87
2023-03-24T03:23:10.798Z,19.30
2023-03-24T03:25:46.533Z,18.37
2023-03-24T03:28:20.715Z,16.17
2023-03-24T03:30:54.227Z,17.03
2023-03-24T03:33:26.261Z,17.93
2023-03-24T03:35:59.711Z,16.47
2023-03-24T03:38:37.134Z,15.43
2023-03-24T03:41:07.442Z,14.13
2023-03-24T03:43:37.067Z,17.17
2023-03-24T03:46:07.386Z,15.50
2023-03-24T03:48:36.085Z,16.87
2023-03-24T03:51:13.253Z,16.47
2023-03-24T03:53:49.066Z,16.77
2023-03-24T03:56:20.656Z,16.93
2023-03-24T03:58:50.082Z,17.87
2023-03-24T04:01:21.090Z,18.23
2023-03-24T04:04:26.211Z,18.73
2023-03-24T04:07:09.545Z,19.77
2023-03-24T04:09:51.861Z,22.97
2023-03-24T04:12:45.014Z,17.83
2023-03-24T04:15:33.956Z,18.60
2023-03-24T04:18:27.808Z,19.07
2023-03-24T04:21:12.985Z,15.40
2023-03-24T04:23:50.023Z,15.70
2023-03-24T04:26:26.641Z,16.30
2023-03-24T04:29:09.008Z,21.03
2023-03-24T04:31:43.196Z,34.53
2023-03-24T04:34:20.810Z,29.33
2023-03-24T04:36:54.404Z,30.30
2023-03-24T04:39:28.220Z,28.63
2023-03-24T04:41:58.607Z,34.77
2023-03-24T04:44:29.072Z,39.30
2023-03-24T04:46:59.058Z,36.97
2023-03-24T04:49:27.244Z,32.87
2023-03-24T04:51:55.780Z,28.53
2023-03-24T04:54:25.153Z,19.60
2023-03-24T04:56:56.239Z,27.37
2023-03-24T04:59:24.723Z,28.93
2023-03-24T05:01:54.282Z,39.80
2023-03-24T05:04:24.815Z,22.60
2023-03-24T05:06:53.320Z,19.73
2023-03-24T05:09:23.911Z,16.27
2023-03-24T05:11:52.901Z,13.43
2023-03-24T05:14:21.353Z,15.83
2023-03-24T05:16:49.583Z,18.13
2023-03-24T05:19:19.244Z,19.07
2023-03-24T05:21:47.899Z,19.43
2023-03-24T05:24:16.105Z,28.30
2023-03-24T05:26:44.255Z,22.57
2023-03-24T05:29:12.436Z,40.97
2023-03-24T05:31:40.763Z,39.60
2023-03-24T05:34:08.895Z,30.30
2023-03-24T05:36:38.452Z,22.63
2023-03-24T05:39:06.626Z,18.73
2023-03-24T05:41:34.883Z,20.00
2023-03-24T05:44:03.125Z,21.00
2023-03-24T05:46:31.356Z,22.07
2023-03-24T05:48:59.537Z,25.87
2023-03-24T05:51:27.684Z,24.63
2023-03-24T05:53:57.222Z,27.23
2023-03-24T05:56:25.921Z,24.50
2023-03-24T05:58:54.355Z,22.67
2023-03-24T06:01:22.498Z,17.93
2023-03-24T06:03:50.811Z,21.60
2023-03-24T06:06:18.983Z,19.00
2023-03-24T06:08:47.160Z,17.23
2023-03-24T06:11:16.891Z,16.70
2023-03-24T06:13:45.054Z,17.23
2023-03-24T06:16:13.415Z,19.63
2023-03-24T06:18:42.788Z,20.63
2023-03-24T06:21:11.090Z,16.03
2023-03-24T06:23:39.414Z,18.88
2023-03-24T06:26:11.638Z,16.27
2023-03-24T06:28:42.261Z,18.90
2023-03-24T06:31:15.208Z,15.77
2023-03-24T06:33:43.617Z,16.47
2023-03-24T06:36:13.564Z,18.30
2023-03-24T06:38:42.868Z,20.27
2023-03-24T06:41:11.284Z,16.67
2023-03-24T06:43:40.924Z,17.83
2023-03-24T06:46:10.187Z,18.33
2023-03-24T06:48:38.625Z,23.45
2023-03-24T06:51:07.578Z,34.65
2023-03-24T06:53:35.762Z,18.38
2023-03-24T06:56:03.924Z,19.17
2023-03-24T06:58:33.913Z,19.77
2023-03-24T07:01:03.576Z,20.90
2023-03-24T07:03:31.815Z,18.10
2023-03-24T07:06:00.886Z,17.55
2023-03-24T07:08:37.101Z,17.13
2023-03-24T07:11:08.771Z,16.65
2023-03-24T07:13:37.614Z,16.88
2023-03-24T07:16:08.329Z,17.88
2023-03-24T07:18:36.601Z,19.27
2023-03-24T07:21:04.915Z,17.67
2023-03-24T07:23:33.202Z,17.80
2023-03-24T07:26:01.497Z,21.40
2023-03-24T07:28:29.664Z,17.60
2023-03-24T07:30:57.937Z,17.17
2023-03-24T07:33:27.542Z,20.27
2023-03-24T07:35:57.387Z,17.40
2023-03-24T07:38:25.960Z,18.05
2023-03-24T07:40:54.254Z,17.40
2023-03-24T07:43:22.951Z,16.42
2023-03-24T07:45:51.170Z,13.20
2023-03-24T07:48:19.732Z,18.17
2023-03-24T07:50:49.589Z,17.00
2023-03-24T07:53:20.035Z,15.75
2023-03-24T07:55:49.241Z,15.45
2023-03-24T07:58:17.986Z,14.82
2023-03-24T08:00:46.280Z,16.02
2023-03-24T08:03:15.720Z,16.60
2023-03-24T08:05:45.248Z,13.43
2023-03-24T08:08:15.282Z,16.63
2023-03-24T08:10:45.913Z,14.68
2023-03-24T08:13:14.263Z,13.27
2023-03-24T08:15:42.427Z,12.80
2023-03-24T08:18:10.719Z,16.10
2023-03-24T08:20:38.914Z,11.35
2023-03-24T08:23:08.500Z,11.93
2023-03-24T08:25:38.650Z,16.35
2023-03-24T08:28:07.770Z,15.13
2023-03-24T08:30:39.639Z,15.48
2023-03-24T08:33:07.901Z,12.73
2023-03-24T08:35:38.950Z,14.85
2023-03-24T08:38:07.993Z,17.65
2023-03-24T08:40:38.852Z,9.98
2023-03-24T08:43:09.395Z,11.93
2023-03-24T08:45:38.226Z,11.80
2023-03-24T08:48:08.854Z,14.27
2023-03-24T08:50:40.022Z,10.65
2023-03-24T08:53:08.691Z,11.90
2023-03-24T08:55:41.777Z,12.32
2023-03-24T08:58:10.788Z,10.32
2023-03-24T09:00:38.937Z,9.85
2023-03-24T09:03:07.361Z,9.80
2023-03-24T09:05:54.552Z,10.98
2023-03-24T09:08:33.020Z,12.52
2023-03-24T09:11:02.577Z,10.10
2023-03-24T09:13:30.777Z,12.52
2023-03-24T09:16:01.527Z,12.43
2023-03-24T09:18:30.217Z,9.82
2023-03-24T09:20:58.329Z,12.50
2023-03-24T09:23:29.161Z,12.80
2023-03-24T09:25:57.296Z,12.77
2023-03-24T09:28:27.794Z,10.60
2023-03-24T09:30:59.060Z,9.77
2023-03-24T09:33:27.474Z,8.60
2023-03-24T09:35:58.475Z,8.98
2023-03-24T09:38:28.330Z,10.48
2023-03-24T09:41:00.960Z,10.05
2023-03-24T09:43:38.990Z,9.20
2023-03-24T09:46:12.535Z,8.40
2023-03-24T09:48:45.417Z,11.18
2023-03-24T09:51:21.649Z,10.02
2023-03-24T09:53:55.713Z,10.05
2023-03-24T09:56:26.341Z,15.02
2023-03-24T09:59:04.227Z,13.68
2023-03-24T10:01:33.095Z,14.88
2023-03-24T10:04:02.685Z,11.85
2023-03-24T10:06:38.625Z,12.32
2023-03-24T10:09:22.765Z,12.05
2023-03-24T10:11:58.866Z,9.90
2023-03-24T10:14:42.489Z,10.43
2023-03-24T10:17:20.273Z,12.10
2023-03-24T10:19:59.596Z,10.02
2023-03-24T10:22:33.516Z,12.82
2023-03-24T10:25:08.249Z,10.02
2023-03-24T10:27:42.368Z,12.73
2023-03-24T10:30:18.884Z,11.05
2023-03-24T10:32:47.898Z,10.98
2023-03-24T10:35:20.751Z,10.95
2023-03-24T10:37:50.056Z,10.38
2023-03-24T10:40:20.669Z,10.60
2023-03-24T10:43:07.074Z,9.48
2023-03-24T10:45:42.058Z,8.75
2023-03-24T10:48:10.361Z,8.27
2023-03-24T10:50:43.938Z,9.68
2023-03-24T10:53:19.735Z,9.43
2023-03-24T10:55:49.113Z,9.35
2023-03-24T10:58:26.754Z,15.38
2023-03-24T11:00:56.749Z,8.68
2023-03-24T11:03:29.791Z,10.05
2023-03-24T11:06:03.179Z,11.50
2023-03-24T11:08:36.900Z,20.90
2023-03-24T11:11:16.530Z,11.02
2023-03-24T11:13:57.723Z,8.93
2023-03-24T11:16:30.997Z,10.40
2023-03-24T11:19:01.662Z,13.85
2023-03-24T11:21:31.441Z,10.65
2023-03-24T11:24:01.237Z,11.65
2023-03-24T11:26:35.012Z,8.98
2023-03-24T11:29:07.549Z,9.85
2023-03-24T11:31:40.090Z,11.13
2023-03-24T11:34:11.537Z,10.68
2023-03-24T11:36:47.302Z,10.55
2023-03-24T11:39:20.044Z,10.82
2023-03-24T11:42:02.195Z,10.02
2023-03-24T11:44:44.329Z,11.60
2023-03-24T11:47:18.247Z,10.07
2023-03-24T11:49:51.510Z,11.10
2023-03-24T11:52:24.448Z,10.60
2023-03-24T11:54:52.779Z,12.38
2023-03-24T11:57:30.213Z,10.80
2023-03-24T12:00:04.805Z,10.13
2023-03-24T12:02:49.741Z,11.70
2023-03-24T12:05:31.653Z,12.65
2023-03-24T12:08:17.825Z,12.52
2023-03-24T12:11:06.318Z,11.88
2023-03-24T12:13:37.774Z,10.75
2023-03-24T12:16:22.773Z,12.45
2023-03-24T12:19:25.338Z,10.25
2023-03-24T12:22:04.090Z,10.05
2023-03-24T12:24:47.042Z,9.55
2023-03-24T12:27:25.714Z,9.63
2023-03-24T12:30:01.792Z,9.10
2023-03-24T12:32:43.223Z,9.95
2023-03-24T12:35:43.194Z,10.80
2023-03-24T12:38:43.697Z,10.30
2023-03-24T12:41:37.412Z,7.03
2023-03-24T12:44:35.796Z,8.25
2023-03-24T12:47:15.856Z,6.85
2023-03-24T12:49:59.882Z,8.00
2023-03-24T12:52:51.109Z,7.47
2023-03-24T12:55:32.308Z,9.27
2023-03-24T12:58:06.023Z,6.93
2023-03-24T13:00:38.328Z,7.55
2023-03-24T13:03:12.291Z,7.15
2023-03-24T13:05:44.980Z,6.30
2023-03-24T13:08:18.385Z,5.78
2023-03-24T13:10:48.643Z,6.53
2023-03-24T13:13:21.751Z,5.85
2023-03-24T13:15:53.179Z,5.47
2023-03-24T13:18:30.976Z,5.50
2023-03-24T13:21:04.208Z,5.13
2023-03-24T13:23:44.877Z,6.38
2023-03-24T13:26:23.388Z,5.00
2023-03-24T13:29:01.699Z,7.05
2023-03-24T13:31:36.450Z,6.40
2023-03-24T13:34:06.569Z,6.18
2023-03-24T13:36:46.112Z,4.38
2023-03-24T13:39:18.538Z,3.75
2023-03-24T13:41:51.867Z,4.00
2023-03-24T13:44:22.894Z,4.30
2023-03-24T13:47:11.088Z,4.63
2023-03-24T13:49:40.971Z,4.55
2023-03-24T13:52:24.803Z,4.28
2023-03-24T13:54:59.413Z,4.60
2023-03-24T13:57:28.075Z,4.93
2023-03-24T14:00:08.775Z,4.13
2023-03-24T14:02:49.991Z,3.90
2023-03-24T14:05:57.514Z,3.88
2023-03-24T14:08:43.726Z,4.72
2023-03-24T14:11:49.823Z,4.68
2023-03-24T14:14:25.072Z,3.10
2023-03-24T14:17:04.350Z,8.35
2023-03-24T14:19:39.183Z,3.42
2023-03-24T14:22:22.945Z,5.03
2023-03-24T14:25:00.527Z,5.38
2023-03-24T14:27:40.986Z,4.88
2023-03-24T14:30:21.349Z,4.60
2023-03-24T14:32:52.193Z,5.80
2023-03-24T14:35:26.170Z,4.22
2023-03-24T14:37:57.229Z,5.95
2023-03-24T14:40:32.202Z,3.30
2023-03-24T14:43:18.177Z,5.40
2023-03-24T14:46:05.031Z,3.85
2023-03-24T14:48:56.779Z,4.35
2023-03-24T14:51:39.358Z,4.15
2023-03-24T14:54:14.663Z,3.97
2023-03-24T14:56:44.751Z,3.88
2023-03-24T14:59:27.092Z,6.70
2023-03-24T15:02:05.171Z,4.65
2023-03-24T15:04:39.329Z,7.38
2023-03-24T15:07:07.932Z,8.23
2023-03-24T15:09:39.031Z,4.05
2023-03-24T15:12:07.333Z,4.95
2023-03-24T15:14:38.398Z,7.07
2023-03-24T15:17:17.406Z,5.15
2023-03-24T15:19:46.845Z,3.38
2023-03-24T15:22:15.455Z,3.78
2023-03-24T15:24:44.847Z,4.22
2023-03-24T15:27:24.581Z,4.20
2023-03-24T15:29:59.145Z,4.90
2023-03-24T15:32:31.767Z,4.30
2023-03-24T15:35:05.610Z,5.40
2023-03-24T15:37:35.992Z,6.07
2023-03-24T15:42:43.029Z,5.32
2023-03-24T15:45:22.233Z,5.40
2023-03-24T15:47:54.200Z,6.90
2023-03-24T15:50:34.190Z,5.88
2023-03-24T15:53:04.553Z,9.05
2023-03-24T15:55:35.882Z,8.73
2023-03-24T15:58:23.013Z,9.10
2023-03-24T16:00:55.901Z,8.18
2023-03-24T16:03:26.802Z,8.50
2023-03-24T16:05:56.846Z,8.57
2023-03-24T16:08:50.396Z,10.15
2023-03-24T16:11:18.860Z,10.48
2023-03-24T16:13:47.402Z,11.98
2023-03-24T16:16:29.198Z,13.75
2023-03-24T16:18:59.597Z,13.80
2023-03-24T16:21:30.027Z,14.07
2023-03-24T16:23:59.241Z,12.93
2023-03-24T16:26:29.282Z,14.63
2023-03-24T16:29:04.176Z,18.20
2023-03-24T16:31:35.575Z,15.75
2023-03-24T16:34:03.785Z,17.65
2023-03-24T16:36:31.990Z,24.58
2023-03-24T16:39:01.669Z,24.02
2023-03-24T16:41:30.181Z,24.10
2023-03-24T16:43:58.312Z,22.27
2023-03-24T16:46:34.785Z,24.30
2023-03-24T16:49:05.396Z,25.52
2023-03-24T16:51:33.548Z,20.35
2023-03-24T16:54:01.971Z,18.88
2023-03-24T16:56:30.503Z,19.52
2023-03-24T16:58:59.639Z,22.08
2023-03-24T17:01:33.753Z,24.83
2023-03-24T17:04:09.523Z,26.98
2023-03-24T17:06:40.395Z,35.75
2023-03-24T17:09:08.728Z,29.83
2023-03-24T17:11:39.395Z,30.17
2023-03-24T17:14:12.332Z,31.10
2023-03-24T17:16:43.444Z,25.77
2023-03-24T17:19:14.143Z,24.30
2023-03-24T17:21:45.991Z,21.92
2023-03-24T17:24:14.686Z,19.58
2023-03-24T17:26:43.992Z,21.30
2023-03-24T17:29:13.494Z,23.42
2023-03-24T17:31:43.154Z,17.90
2023-03-24T17:36:46.407Z,20.20
2023-03-24T17:39:20.775Z,25.08
2023-03-24T17:41:50.525Z,24.20
2023-03-24T17:44:18.797Z,24.55
2023-03-24T17:46:47.178Z,20.30
2023-03-24T17:49:16.766Z,19.17
2023-03-24T17:51:45.132Z,24.75
2023-03-24T17:54:13.761Z,23.42
2023-03-24T17:56:41.995Z,25.40
2023-03-24T17:59:10.238Z,32.00
2023-03-24T18:01:39.380Z,28.30
2023-03-24T18:04:08.240Z,32.85
2023-03-24T18:06:38.702Z,27.35
2023-03-24T18:09:07.438Z,29.30
2023-03-24T18:11:35.912Z,23.17
2023-03-24T18:14:04.279Z,24.90
2023-03-24T18:16:35.916Z,25.52
2023-03-24T18:19:04.543Z,25.02
2023-03-24T18:21:33.673Z,25.17
2023-03-24T18:24:05.548Z,24.63
2023-03-24T18:26:33.922Z,25.17
2023-03-24T18:29:02.455Z,23.52
2023-03-24T18:31:32.333Z,22.23
2023-03-24T18:34:01.538Z,30.33
2023-03-24T18:36:31.108Z,19.98
2023-03-24T18:39:00.760Z,22.80
2023-03-24T18:41:30.972Z,23.70
2023-03-24T18:44:00.625Z,23.90
2023-03-24T18:46:30.684Z,21.17
2023-03-24T18:48:59.629Z,19.27
2023-03-24T18:51:28.524Z,23.42
2023-03-24T18:53:56.776Z,18.08
2023-03-24T18:56:25.554Z,19.55
2023-03-24T18:58:55.113Z,20.27
2023-03-24T19:01:26.179Z,20.90
2023-03-24T19:03:54.871Z,19.55
2023-03-24T19:06:26.184Z,24.90
2023-03-24T19:08:55.158Z,19.23
2023-03-24T19:11:23.461Z,19.58
2023-03-24T19:13:52.092Z,21.95
2023-03-24T19:16:22.020Z,20.30
2023-03-24T19:18:50.966Z,22.27
2023-03-24T19:21:19.503Z,19.15
2023-03-24T19:23:49.959Z,21.58
2023-03-24T19:26:21.775Z,22.25
2023-03-24T19:28:50.461Z,22.98
2023-03-24T19:31:24.231Z,23.52
2023-03-24T19:33:53.724Z,27.83
2023-03-24T19:36:22.096Z,21.77
2023-03-24T19:38:50.942Z,24.00
2023-03-24T19:41:19.428Z,24.75
2023-03-24T19:43:47.597Z,19.52
2023-03-24T19:46:16.571Z,22.33
2023-03-24T19:48:48.733Z,30.08
2023-03-24T19:51:16.900Z,35.33
2023-03-24T19:53:45.133Z,45.30
2023-03-24T19:56:13.617Z,37.53
2023-03-24T19:58:41.812Z,28.60
2023-03-24T20:01:10.358Z,24.92
2023-03-24T20:03:38.568Z,25.45
2023-03-24T20:06:10.060Z,24.30
2023-03-24T20:08:39.306Z,29.20
2023-03-24T20:11:12.226Z,28.42
2023-03-24T20:13:40.779Z,27.52
2023-03-24T20:16:09.117Z,29.50
2023-03-24T20:18:38.993Z,29.20
2023-03-24T20:21:09.820Z,27.35
2023-03-24T20:23:38.057Z,25.33
2023-03-24T20:26:06.707Z,33.10
2023-03-24T20:28:37.444Z,29.65
2023-03-24T20:31:06.421Z,29.58
2023-03-24T20:33:34.866Z,27.08
2023-03-24T20:36:03.567Z,17.42
2023-03-24T20:38:33.623Z,14.45
2023-03-24T20:41:03.380Z,15.68
2023-03-24T20:43:35.578Z,12.45
2023-03-24T20:46:04.907Z,7.53
2023-03-24T20:48:33.126Z,11.93
2023-03-24T20:51:02.003Z,9.48
2023-03-24T20:53:32.778Z,9.25
2023-03-24T20:56:06.646Z,11.68
2023-03-24T20:58:35.210Z,7.60
2023-03-24T21:01:07.997Z,8.93
2023-03-24T21:03:36.638Z,7.75
2023-03-24T21:06:06.037Z,8.93
2023-03-24T21:08:34.224Z,49.80
2023-03-24T21:11:04.025Z,25.50
2023-03-24T21:13:37.364Z,15.82
2023-03-24T21:16:08.322Z,12.80
2023-03-24T21:18:38.036Z,12.25
2023-03-24T21:21:07.189Z,8.27
2023-03-24T21:23:39.311Z,6.95
2023-03-24T21:26:11.368Z,5.53
2023-03-24T21:28:39.823Z,5.28
2023-03-24T21:31:09.817Z,7.13
2023-03-24T21:33:40.744Z,5.07
2023-03-24T21:36:10.913Z,7.70
2023-03-24T21:38:40.115Z,5.97
2023-03-24T21:41:10.601Z,4.05
2023-03-24T21:43:40.539Z,4.90
2023-03-24T21:46:20.445Z,3.50
2023-03-24T21:48:51.464Z,4.20
2023-03-24T21:51:21.413Z,5.35
2023-03-24T21:53:49.590Z,6.35
2023-03-24T21:56:20.546Z,4.90
2023-03-24T21:58:48.810Z,6.35
2023-03-24T22:01:17.333Z,6.72
2023-03-24T22:03:46.521Z,6.10
2023-03-24T22:06:15.486Z,6.00
2023-03-24T22:08:44.664Z,5.60
2023-03-24T22:11:15.397Z,7.80
2023-03-24T22:13:46.918Z,11.07
2023-03-24T22:16:15.742Z,8.02
2023-03-24T22:18:43.881Z,8.02
2023-03-24T22:21:12.562Z,7.20
2023-03-24T22:23:42.705Z,9.07
2023-03-24T22:26:13.085Z,9.63
2023-03-24T22:28:42.471Z,7.57
2023-03-24T22:31:13.733Z,8.35
2023-03-24T22:33:42.092Z,8.98
2023-03-24T22:36:11.436Z,6.93
2023-03-24T22:38:39.864Z,10.55
2023-03-24T22:41:11.470Z,9.30
2023-03-24T22:43:41.582Z,11.50
2023-03-24T22:46:11.625Z,11.45
2023-03-24T22:48:40.083Z,8.48
2023-03-24T22:51:09.459Z,10.40
2023-03-24T22:53:37.671Z,10.00
2023-03-24T22:56:09.024Z,10.67
2023-03-24T22:58:37.509Z,11.27
2023-03-24T23:01:06.181Z,13.43
2023-03-24T23:03:36.306Z,10.60
2023-03-24T23:06:04.823Z,7.60
2023-03-24T23:08:34.605Z,8.00
2023-03-24T23:11:02.949Z,7.23
2023-03-24T23:13:35.469Z,9.23
2023-03-24T23:16:03.873Z,11.57
2023-03-24T23:18:32.683Z,8.10
2023-03-24T23:21:08.038Z,7.27
2023-03-24T23:23:37.292Z,10.23
2023-03-24T23:26:06.226Z,6.47
2023-03-24T23:28:35.422Z,8.80
2023-03-24T23:31:03.696Z,8.47
2023-03-24T23:33:31.954Z,12.13
2023-03-24T23:36:01.781Z,9.13
2023-03-24T23:38:31.605Z,9.80
2023-03-24T23:40:59.790Z,8.97
2023-03-24T23:43:28.120Z,9.37
2023-03-24T23:45:56.803Z,11.47
2023-03-24T23:48:26.055Z,11.07
2023-03-24T23:50:57.523Z,11.00
2023-03-24T23:53:25.878Z,10.07
2023-03-24T23:55:57.386Z,9.83
2023-03-24T23:58:25.739Z,14.27
